createdAt,value
2023-03-08T00:00:35.618Z,9.719036
2023-03-08T00:01:35.594Z,9.719104
2023-03-08T00:02:35.617Z,9.719174
2023-03-08T00:03:35.607Z,9.719376
2023-03-08T00:04:35.654Z,9.719195
2023-03-08T00:05:35.563Z,9.719429
2023-03-08T00:06:35.562Z,9.719200
2023-03-08T00:07:35.545Z,9.719154
2023-03-08T00:08:35.601Z,9.719081
2023-03-08T00:09:35.524Z,9.719213
2023-03-08T00:10:35.530Z,9.719145
2023-03-08T00:11:35.514Z,9.719206
2023-03-08T00:12:36.493Z,9.719149
2023-03-08T00:13:35.522Z,9.719213
2023-03-08T00:14:35.495Z,9.719295
2023-03-08T00:15:35.485Z,9.719282
2023-03-08T00:16:35.469Z,9.719167
2023-03-08T00:17:35.449Z,9.719147
2023-03-08T00:18:35.509Z,9.719272
2023-03-08T00:19:35.420Z,9.719229
2023-03-08T00:20:35.421Z,9.719234
2023-03-08T00:21:35.417Z,9.719149
2023-03-08T00:22:35.413Z,9.719221
2023-03-08T00:23:35.396Z,9.719245
2023-03-08T00:24:35.410Z,9.719408
2023-03-08T00:25:35.373Z,9.719367
2023-03-08T00:26:35.356Z,9.719316
2023-03-08T00:27:35.377Z,9.719455
2023-03-08T00:28:35.345Z,9.719312
2023-03-08T00:29:35.348Z,9.719298
2023-03-08T00:30:35.323Z,9.719166
2023-03-08T00:31:35.354Z,9.719234
2023-03-08T00:32:35.361Z,9.719400
2023-03-08T00:33:35.315Z,9.719456
2023-03-08T00:34:35.312Z,9.719410
2023-03-08T00:35:35.354Z,9.719498
2023-03-08T00:36:35.269Z,9.719271
2023-03-08T00:37:35.265Z,9.719184
2023-03-08T00:38:35.260Z,9.719233
2023-03-08T00:39:35.265Z,9.719158
2023-03-08T00:40:35.231Z,9.719281
2023-03-08T00:41:35.217Z,9.719262
2023-03-08T00:42:35.232Z,9.719274
2023-03-08T00:43:35.223Z,9.719272
2023-03-08T00:44:35.222Z,9.719232
2023-03-08T00:45:35.189Z,9.719196
2023-03-08T00:46:35.257Z,9.719174
2023-03-08T00:47:35.150Z,9.719190
2023-03-08T00:48:35.238Z,9.719152
2023-03-08T00:49:35.152Z,9.719160
2023-03-08T00:50:35.194Z,9.719209
2023-03-08T00:51:35.137Z,9.719215
2023-03-08T00:52:35.113Z,9.719249
2023-03-08T00:53:35.139Z,9.719180
2023-03-08T00:54:35.137Z,9.719215
2023-03-08T00:55:35.094Z,9.719258
2023-03-08T00:56:35.077Z,9.719193
2023-03-08T00:57:35.071Z,9.719179
2023-03-08T00:58:35.071Z,9.719281
2023-03-08T00:59:35.086Z,9.719244
2023-03-08T01:00:35.050Z,9.719258
2023-03-08T01:01:35.044Z,9.719264
2023-03-08T01:02:35.017Z,9.719172
2023-03-08T01:03:35.007Z,9.719162
2023-03-08T01:04:35.037Z,9.719216
2023-03-08T01:05:34.995Z,9.719195
2023-03-08T01:06:34.982Z,9.719194
2023-03-08T01:07:34.969Z,9.719158
2023-03-08T01:08:34.989Z,9.719180
2023-03-08T01:09:34.960Z,9.719109
2023-03-08T01:10:34.934Z,9.719118
2023-03-08T01:11:34.935Z,9.719116
2023-03-08T01:12:34.925Z,9.719091
2023-03-08T01:13:34.939Z,9.719166
2023-03-08T01:14:34.912Z,9.719127
2023-03-08T01:15:34.905Z,9.719083
2023-03-08T01:16:35.887Z,9.719027
2023-03-08T01:17:34.887Z,9.719090
2023-03-08T01:18:34.858Z,9.719029
2023-03-08T01:19:34.848Z,9.719012
2023-03-08T01:20:34.856Z,9.719065
2023-03-08T01:21:34.832Z,9.719071
2023-03-08T01:22:34.823Z,9.719149
2023-03-08T01:23:34.841Z,9.719009
2023-03-08T01:24:34.795Z,9.719011
2023-03-08T01:25:34.792Z,9.718976
2023-03-08T01:26:34.794Z,9.719101
2023-03-08T01:28:06.664Z,9.718914
2023-03-08T01:28:34.747Z,9.718978
2023-03-08T01:29:34.757Z,9.719000
2023-03-08T01:30:34.759Z,9.718882
2023-03-08T01:31:34.784Z,9.718975
2023-03-08T01:32:34.773Z,9.719028
2023-03-08T01:33:34.716Z,9.718979
2023-03-08T01:34:34.713Z,9.718863
2023-03-08T01:35:34.740Z,9.718625
2023-03-08T01:36:34.698Z,9.718486
2023-03-08T01:37:34.718Z,9.718638
2023-03-08T01:38:34.696Z,9.718624
2023-03-08T01:39:34.679Z,9.718740
2023-03-08T01:40:34.666Z,9.718783
2023-03-08T01:41:34.641Z,9.718879
2023-03-08T01:42:34.620Z,9.718819
2023-03-08T01:43:34.615Z,9.718766
2023-03-08T01:44:34.625Z,9.718848
2023-03-08T01:45:34.618Z,9.718809
2023-03-08T01:46:34.589Z,9.718877
2023-03-08T01:47:34.569Z,9.718895
2023-03-08T01:48:34.560Z,9.718884
2023-03-08T01:49:34.574Z,9.718924
2023-03-08T01:50:34.547Z,9.718953
2023-03-08T01:51:34.542Z,9.718956
2023-03-08T01:52:34.524Z,9.718930
2023-03-08T01:53:34.530Z,9.718935
2023-03-08T01:54:34.519Z,9.718946
2023-03-08T01:55:34.492Z,9.719012
2023-03-08T01:56:34.474Z,9.719127
2023-03-08T01:57:34.481Z,9.719126
2023-03-08T01:58:34.464Z,9.719172
2023-03-08T01:59:34.481Z,9.719109
2023-03-08T02:00:34.436Z,9.719122
2023-03-08T02:01:34.443Z,9.719125
2023-03-08T02:02:34.444Z,9.719227
2023-03-08T02:03:34.421Z,9.719234
2023-03-08T02:04:34.423Z,9.719224
2023-03-08T02:05:34.398Z,9.719242
2023-03-08T02:06:34.401Z,9.719133
2023-03-08T02:07:34.368Z,9.719151
2023-03-08T02:08:34.455Z,9.719102
2023-03-08T02:09:34.361Z,9.719177
2023-03-08T02:10:34.368Z,9.719132
2023-03-08T02:11:34.349Z,9.719228
2023-03-08T02:12:34.343Z,9.719188
2023-03-08T02:13:34.340Z,9.719225
2023-03-08T02:14:34.303Z,9.719086
2023-03-08T02:15:34.312Z,9.719102
2023-03-08T02:16:34.317Z,9.719143
2023-03-08T02:17:34.291Z,9.719232
2023-03-08T02:18:34.271Z,9.719270
2023-03-08T02:19:34.263Z,9.719299
2023-03-08T02:20:34.253Z,9.719223
2023-03-08T02:21:34.255Z,9.719263
2023-03-08T02:22:34.249Z,9.719260
2023-03-08T02:23:34.222Z,9.719316
2023-03-08T02:24:34.218Z,9.719236
2023-03-08T02:25:34.195Z,9.719250
2023-03-08T02:26:35.222Z,9.719243
2023-03-08T02:27:34.180Z,9.719393
2023-03-08T02:28:34.181Z,9.719507
2023-03-08T02:29:34.161Z,9.719419
2023-03-08T02:30:34.175Z,9.719414
2023-03-08T02:31:34.144Z,9.719360
2023-03-08T02:32:34.198Z,9.719425
2023-03-08T02:33:34.126Z,9.719358
2023-03-08T02:34:34.114Z,9.718938
2023-03-08T02:35:34.220Z,9.718751
2023-03-08T02:36:34.127Z,9.718455
2023-03-08T02:37:34.101Z,9.718597
2023-03-08T02:38:34.087Z,9.718679
2023-03-08T02:39:34.074Z,9.718882
2023-03-08T02:40:34.058Z,9.718710
2023-03-08T02:41:34.076Z,9.718574
2023-03-08T02:42:34.041Z,9.718687
2023-03-08T02:43:34.050Z,9.718851
2023-03-08T02:44:34.029Z,9.719246
2023-03-08T02:45:34.044Z,9.719368
2023-03-08T02:46:34.011Z,9.719475
2023-03-08T02:47:34.016Z,9.719336
2023-03-08T02:48:33.989Z,9.719437
2023-03-08T02:49:33.974Z,9.719654
2023-03-08T02:50:33.972Z,9.719396
2023-03-08T02:51:33.971Z,9.719134
2023-03-08T02:52:33.978Z,9.719215
2023-03-08T02:53:33.954Z,9.719577
2023-03-08T02:54:33.932Z,9.719546
2023-03-08T02:55:33.937Z,9.719231
2023-03-08T02:56:34.021Z,9.719080
2023-03-08T02:57:33.898Z,9.719084
2023-03-08T02:58:33.889Z,9.719193
2023-03-08T02:59:33.894Z,9.719155
2023-03-08T03:00:33.869Z,9.719208
2023-03-08T03:01:33.967Z,9.719145
2023-03-08T03:02:33.850Z,9.719117
2023-03-08T03:03:33.847Z,9.718985
2023-03-08T03:04:33.852Z,9.719205
2023-03-08T03:05:33.810Z,9.718977
2023-03-08T03:06:33.880Z,9.719060
2023-03-08T03:07:33.811Z,9.719206
2023-03-08T03:08:33.795Z,9.719744
2023-03-08T03:09:33.800Z,9.719552
2023-03-08T03:10:33.818Z,9.719163
2023-03-08T03:11:33.757Z,9.719321
2023-03-08T03:12:33.758Z,9.719411
2023-03-08T03:13:33.739Z,9.719179
2023-03-08T03:14:33.741Z,9.719418
2023-03-08T03:15:33.745Z,9.719041
2023-03-08T03:16:33.710Z,9.719178
2023-03-08T03:17:33.701Z,9.719625
2023-03-08T03:18:33.717Z,9.719604
2023-03-08T03:19:33.686Z,9.719306
2023-03-08T03:20:33.670Z,9.719310
2023-03-08T03:21:33.651Z,9.719341
2023-03-08T03:22:33.656Z,9.719502
2023-03-08T03:23:33.654Z,9.719500
2023-03-08T03:24:34.939Z,9.719466
2023-03-08T03:25:33.623Z,9.719315
2023-03-08T03:26:33.615Z,9.719290
2023-03-08T03:27:33.606Z,9.719007
2023-03-08T03:28:33.593Z,9.719056
2023-03-08T03:29:33.596Z,9.719288
2023-03-08T03:30:33.560Z,9.719234
2023-03-08T03:31:33.563Z,9.719081
2023-03-08T03:32:33.637Z,9.718991
2023-03-08T03:33:33.562Z,9.719262
2023-03-08T03:34:33.535Z,9.718933
2023-03-08T03:35:33.561Z,9.719100
2023-03-08T03:36:33.508Z,9.719204
2023-03-08T03:37:33.501Z,9.719264
2023-03-08T03:38:33.503Z,9.719205
2023-03-08T03:39:33.499Z,9.719196
2023-03-08T03:40:33.472Z,9.719180
2023-03-08T03:41:33.452Z,9.719292
2023-03-08T03:42:33.449Z,9.719254
2023-03-08T03:43:33.440Z,9.719276
2023-03-08T03:44:33.444Z,9.719250
2023-03-08T03:45:33.418Z,9.719286
2023-03-08T03:46:33.441Z,9.719209
2023-03-08T03:47:33.407Z,9.719076
2023-03-08T03:48:33.404Z,9.718975
2023-03-08T03:49:33.385Z,9.719202
2023-03-08T03:50:33.382Z,9.719298
2023-03-08T03:51:33.367Z,9.719432
2023-03-08T03:52:33.378Z,9.719346
2023-03-08T03:53:33.350Z,9.719480
2023-03-08T03:54:33.342Z,9.719508
2023-03-08T03:55:33.365Z,9.719540
2023-03-08T03:56:33.320Z,9.719657
2023-03-08T03:57:33.324Z,9.719645
2023-03-08T03:58:33.305Z,9.719384
2023-03-08T03:59:33.298Z,9.719387
2023-03-08T04:00:33.340Z,9.719405
2023-03-08T04:01:33.296Z,9.719429
2023-03-08T04:02:33.309Z,9.719377
2023-03-08T04:03:33.312Z,9.719341
2023-03-08T04:04:33.241Z,9.719240
2023-03-08T04:05:33.242Z,9.719255
2023-03-08T04:06:33.234Z,9.719383
2023-03-08T04:07:33.254Z,9.719272
2023-03-08T04:08:33.209Z,9.719358
2023-03-08T04:09:33.206Z,9.719356
2023-03-08T04:10:33.200Z,9.719555
2023-03-08T04:11:33.204Z,9.719596
2023-03-08T04:12:33.181Z,9.719481
2023-03-08T04:13:33.167Z,9.719334
2023-03-08T04:14:33.155Z,9.719290
2023-03-08T04:15:33.150Z,9.719347
2023-03-08T04:16:33.205Z,9.719315
2023-03-08T04:17:33.139Z,9.719319
2023-03-08T04:18:33.121Z,9.719692
2023-03-08T04:19:34.125Z,9.719755
2023-03-08T04:20:33.103Z,9.719259
2023-03-08T04:21:33.087Z,9.719323
2023-03-08T04:22:33.102Z,9.719234
2023-03-08T04:23:33.076Z,9.719342
2023-03-08T04:24:33.070Z,9.719478
2023-03-08T04:25:33.045Z,9.719507
2023-03-08T04:26:33.050Z,9.719411
2023-03-08T04:27:33.088Z,9.719469
2023-03-08T04:28:33.021Z,9.719532
2023-03-08T04:29:33.024Z,9.719316
2023-03-08T04:30:32.999Z,9.719227
2023-03-08T04:31:33.021Z,9.719233
2023-03-08T04:32:33.191Z,9.719275
2023-03-08T04:33:32.976Z,9.719300
2023-03-08T04:34:32.980Z,9.719307
2023-03-08T04:35:32.971Z,9.719344
2023-03-08T04:36:32.950Z,9.719354
2023-03-08T04:37:32.928Z,9.719328
2023-03-08T04:38:32.939Z,9.719392
2023-03-08T04:39:32.925Z,9.719328
2023-03-08T04:40:32.896Z,9.719323
2023-03-08T04:41:32.900Z,9.719352
2023-03-08T04:42:32.890Z,9.719397
2023-03-08T04:43:32.894Z,9.719315
2023-03-08T04:44:32.873Z,9.719256
2023-03-08T04:45:32.855Z,9.719290
2023-03-08T04:46:32.891Z,9.719286
2023-03-08T04:47:32.840Z,9.719245
2023-03-08T04:48:32.848Z,9.719275
2023-03-08T04:49:32.817Z,9.719243
2023-03-08T04:50:32.798Z,9.719254
2023-03-08T04:51:32.814Z,9.719396
2023-03-08T04:52:32.786Z,9.719332
2023-03-08T04:53:32.785Z,9.719277
2023-03-08T04:54:32.771Z,9.719305
2023-03-08T04:55:32.788Z,9.719300
2023-03-08T04:56:32.746Z,9.719236
2023-03-08T04:57:32.761Z,9.719274
2023-03-08T04:58:32.722Z,9.719263
2023-03-08T04:59:32.738Z,9.719161
2023-03-08T05:00:32.726Z,9.719293
2023-03-08T05:01:32.696Z,9.719291
2023-03-08T05:02:33.656Z,9.719342
2023-03-08T05:03:33.684Z,9.719451
2023-03-08T05:04:32.707Z,9.719499
2023-03-08T05:05:32.699Z,9.719487
2023-03-08T05:06:32.655Z,9.719524
2023-03-08T05:07:32.644Z,9.719443
2023-03-08T05:08:32.641Z,9.719232
2023-03-08T05:09:32.626Z,9.719228
2023-03-08T05:10:32.678Z,9.719259
2023-03-08T05:11:32.613Z,9.719365
2023-03-08T05:12:32.595Z,9.719246
2023-03-08T05:13:32.583Z,9.719141
2023-03-08T05:14:32.573Z,9.719307
2023-03-08T05:15:32.564Z,9.719344
2023-03-08T05:16:32.623Z,9.719037
2023-03-08T05:17:32.547Z,9.718977
2023-03-08T05:18:32.542Z,9.719271
2023-03-08T05:19:32.523Z,9.719317
2023-03-08T05:20:32.518Z,9.719325
2023-03-08T05:21:32.549Z,9.719328
2023-03-08T05:22:32.495Z,9.719259
2023-03-08T05:23:32.483Z,9.719274
2023-03-08T05:24:32.466Z,9.719269
2023-03-08T05:25:32.468Z,9.719267
2023-03-08T05:26:32.444Z,9.719291
2023-03-08T05:27:32.474Z,9.719280
2023-03-08T05:28:32.431Z,9.719217
2023-03-08T05:29:32.423Z,9.719219
2023-03-08T05:30:32.417Z,9.719215
2023-03-08T05:31:32.449Z,9.719264
2023-03-08T05:32:32.469Z,9.719198
2023-03-08T05:33:32.387Z,9.719234
2023-03-08T05:34:32.378Z,9.719229
2023-03-08T05:35:32.379Z,9.719250
2023-03-08T05:36:32.447Z,9.719225
2023-03-08T05:37:32.332Z,9.719225
2023-03-08T05:38:33.347Z,9.719230
2023-03-08T05:39:32.315Z,9.719249
2023-03-08T05:40:32.307Z,9.719249
2023-03-08T05:41:32.316Z,9.719275
2023-03-08T05:42:32.299Z,9.719244
2023-03-08T05:43:32.306Z,9.719252
2023-03-08T05:44:32.282Z,9.719204
2023-03-08T05:45:32.439Z,9.719224
2023-03-08T05:46:32.278Z,9.719261
2023-03-08T05:47:32.248Z,9.719210
2023-03-08T05:48:32.264Z,9.719176
2023-03-08T05:49:32.212Z,9.719279
2023-03-08T05:50:33.213Z,9.719170
2023-03-08T05:51:32.198Z,9.719122
2023-03-08T05:52:34.484Z,9.719259
2023-03-08T05:53:33.226Z,9.719232
2023-03-08T05:54:32.197Z,9.719163
2023-03-08T05:55:32.194Z,9.719173
2023-03-08T05:56:32.179Z,9.719161
2023-03-08T05:57:32.168Z,9.719171
2023-03-08T05:58:32.135Z,9.719160
2023-03-08T05:59:32.133Z,9.719151
2023-03-08T06:00:32.139Z,9.719114
2023-03-08T06:01:32.129Z,9.719098
2023-03-08T06:02:32.096Z,9.719214
2023-03-08T06:03:32.082Z,9.719195
2023-03-08T06:04:32.072Z,9.719071
2023-03-08T06:05:32.092Z,9.719162
2023-03-08T06:06:33.632Z,9.719286
2023-03-08T06:07:32.160Z,9.719198
2023-03-08T06:08:32.033Z,9.719234
2023-03-08T06:09:32.026Z,9.719180
2023-03-08T06:10:32.026Z,9.719201
2023-03-08T06:11:32.001Z,9.719164
2023-03-08T06:12:32.010Z,9.719132
2023-03-08T06:13:31.995Z,9.719194
2023-03-08T06:14:31.984Z,9.719158
2023-03-08T06:15:32.007Z,9.719224
2023-03-08T06:16:32.001Z,9.719182
2023-03-08T06:17:31.952Z,9.719151
2023-03-08T06:18:31.943Z,9.719038
2023-03-08T06:19:31.925Z,9.718914
2023-03-08T06:20:31.926Z,9.719149
2023-03-08T06:21:31.926Z,9.719194
2023-03-08T06:22:31.888Z,9.719004
2023-03-08T06:23:31.899Z,9.719157
2023-03-08T06:24:31.880Z,9.719374
2023-03-08T06:25:31.892Z,9.719430
2023-03-08T06:26:31.859Z,9.719383
2023-03-08T06:27:31.880Z,9.719270
2023-03-08T06:28:31.850Z,9.719144
2023-03-08T06:29:31.879Z,9.719043
2023-03-08T06:30:31.860Z,9.719024
2023-03-08T06:31:31.820Z,9.719121
2023-03-08T06:32:31.815Z,9.719111
2023-03-08T06:33:32.807Z,9.719153
2023-03-08T06:34:31.803Z,9.719130
2023-03-08T06:35:31.792Z,9.719074
2023-03-08T06:36:31.771Z,9.719189
2023-03-08T06:37:31.765Z,9.719272
2023-03-08T06:38:33.350Z,9.719328
2023-03-08T06:39:32.739Z,9.719359
2023-03-08T06:40:31.737Z,9.719372
2023-03-08T06:41:31.721Z,9.719164
2023-03-08T06:42:41.141Z,9.719151
2023-03-08T06:43:32.707Z,9.719156
2023-03-08T06:44:31.692Z,9.719337
2023-03-08T06:45:31.672Z,9.719426
2023-03-08T06:46:31.714Z,9.719296
2023-03-08T06:47:31.683Z,9.719192
2023-03-08T06:48:31.656Z,9.719113
2023-03-08T06:49:31.648Z,9.719119
2023-03-08T06:50:31.625Z,9.719320
2023-03-08T06:51:31.657Z,9.719376
2023-03-08T06:52:31.619Z,9.719350
2023-03-08T06:53:31.635Z,9.719250
2023-03-08T06:54:31.612Z,9.719192
2023-03-08T06:55:31.609Z,9.719068
2023-03-08T06:56:31.646Z,9.719183
2023-03-08T06:57:31.579Z,9.719270
2023-03-08T06:58:31.568Z,9.719200
2023-03-08T06:59:31.565Z,9.719369
2023-03-08T07:00:31.626Z,9.719437
2023-03-08T07:01:31.588Z,9.719440
2023-03-08T07:02:31.529Z,9.719373
2023-03-08T07:03:31.514Z,9.719411
2023-03-08T07:04:31.579Z,9.719428
2023-03-08T07:05:32.480Z,9.719393
2023-03-08T07:06:31.492Z,9.719376
2023-03-08T07:07:31.495Z,9.719365
2023-03-08T07:08:31.457Z,9.719411
2023-03-08T07:09:31.474Z,9.719397
2023-03-08T07:10:31.425Z,9.719354
2023-03-08T07:11:31.442Z,9.719424
2023-03-08T07:12:31.421Z,9.719398
2023-03-08T07:13:31.395Z,9.719354
2023-03-08T07:14:31.395Z,9.719328
2023-03-08T07:15:31.457Z,9.719352
2023-03-08T07:16:31.375Z,9.719387
2023-03-08T07:17:31.353Z,9.719406
2023-03-08T07:18:31.355Z,9.719394
2023-03-08T07:19:31.342Z,9.719338
2023-03-08T07:20:31.350Z,9.719428
2023-03-08T07:21:31.344Z,9.719441
2023-03-08T07:22:31.305Z,9.719372
2023-03-08T07:23:31.306Z,9.719332
2023-03-08T07:24:31.312Z,9.719349
2023-03-08T07:25:31.291Z,9.719366
2023-03-08T07:26:31.295Z,9.719438
2023-03-08T07:27:52.729Z,9.719313
2023-03-08T07:28:31.275Z,9.719338
2023-03-08T07:29:31.254Z,9.719340
2023-03-08T07:30:31.232Z,9.719362
2023-03-08T07:31:31.244Z,9.719453
2023-03-08T07:32:31.276Z,9.719396
2023-03-08T07:33:31.246Z,9.719288
2023-03-08T07:34:31.221Z,9.719291
2023-03-08T07:35:31.185Z,9.719058
2023-03-08T07:36:31.201Z,9.719382
2023-03-08T07:37:31.161Z,9.719520
2023-03-08T07:38:31.153Z,9.719246
2023-03-08T07:39:31.146Z,9.719722
2023-03-08T07:40:31.138Z,9.719731
2023-03-08T07:41:32.140Z,9.719468
2023-03-08T07:42:31.139Z,9.719101
2023-03-08T07:43:31.149Z,9.719115
2023-03-08T07:44:31.105Z,9.719367
2023-03-08T07:45:31.103Z,9.719313
2023-03-08T07:46:31.105Z,9.719526
2023-03-08T07:47:31.072Z,9.719275
2023-03-08T07:48:31.126Z,9.719333
2023-03-08T07:49:31.056Z,9.719279
2023-03-08T07:50:31.044Z,9.718986
2023-03-08T07:51:31.038Z,9.719414
2023-03-08T07:52:31.025Z,9.719257
2023-03-08T07:53:31.036Z,9.719090
2023-03-08T07:54:31.016Z,9.719071
2023-03-08T07:55:30.987Z,9.719023
2023-03-08T07:56:31.001Z,9.719364
2023-03-08T07:57:30.980Z,9.719237
2023-03-08T07:58:31.008Z,9.718903
2023-03-08T07:59:30.963Z,9.719069
2023-03-08T08:00:30.945Z,9.719144
2023-03-08T08:01:30.961Z,9.718951
2023-03-08T08:02:30.928Z,9.718754
2023-03-08T08:03:31.055Z,9.719041
2023-03-08T08:04:30.929Z,9.719110
2023-03-08T08:05:30.971Z,9.718971
2023-03-08T08:06:30.899Z,9.719116
2023-03-08T08:07:30.876Z,9.719134
2023-03-08T08:08:30.875Z,9.719095
2023-03-08T08:09:30.854Z,9.719235
2023-03-08T08:10:30.860Z,9.718848
2023-03-08T08:11:30.848Z,9.719022
2023-03-08T08:12:30.827Z,9.719146
2023-03-08T08:13:30.833Z,9.719167
2023-03-08T08:14:30.826Z,9.719153
2023-03-08T08:15:30.816Z,9.719110
2023-03-08T08:16:30.839Z,9.719132
2023-03-08T08:17:30.771Z,9.719172
2023-03-08T08:18:30.759Z,9.719129
2023-03-08T08:19:30.750Z,9.719214
2023-03-08T08:20:30.745Z,9.719288
2023-03-08T08:21:30.753Z,9.719267
2023-03-08T08:22:30.744Z,9.719255
2023-03-08T08:23:30.738Z,9.719176
2023-03-08T08:24:30.725Z,9.719072
2023-03-08T08:25:30.703Z,9.719157
2023-03-08T08:26:30.694Z,9.719202
2023-03-08T08:27:30.680Z,9.719239
2023-03-08T08:28:30.701Z,9.719257
2023-03-08T08:29:30.664Z,9.719172
2023-03-08T08:30:30.673Z,9.719048
2023-03-08T08:31:30.817Z,9.719026
2023-03-08T08:32:30.691Z,9.719210
2023-03-08T08:33:30.635Z,9.719229
2023-03-08T08:34:30.639Z,9.719241
2023-03-08T08:35:42.349Z,9.719215
2023-03-08T08:36:32.594Z,9.719034
2023-03-08T08:37:30.586Z,9.719151
2023-03-08T08:38:30.562Z,9.719189
2023-03-08T08:39:30.563Z,9.719262
2023-03-08T08:40:30.585Z,9.719164
2023-03-08T08:41:30.549Z,9.719101
2023-03-08T08:42:30.552Z,9.719139
2023-03-08T08:43:30.516Z,9.719007
2023-03-08T08:44:30.530Z,9.719007
2023-03-08T08:45:30.507Z,9.719147
2023-03-08T08:46:30.497Z,9.719319
2023-03-08T08:47:30.512Z,9.719311
2023-03-08T08:48:30.528Z,9.719276
2023-03-08T08:49:30.463Z,9.719439
2023-03-08T08:50:30.450Z,9.719387
2023-03-08T08:51:30.443Z,9.719332
2023-03-08T08:52:30.433Z,9.719200
2023-03-08T08:53:30.437Z,9.719438
2023-03-08T08:54:30.436Z,9.719374
2023-03-08T08:55:30.407Z,9.719462
2023-03-08T08:56:30.408Z,9.719864
2023-03-08T08:57:30.454Z,9.719337
2023-03-08T08:58:30.377Z,9.719131
2023-03-08T08:59:30.370Z,9.718891
2023-03-08T09:00:30.362Z,9.719069
2023-03-08T09:01:30.355Z,9.718868
2023-03-08T09:02:30.375Z,9.719297
2023-03-08T09:03:30.364Z,9.719218
2023-03-08T09:04:30.368Z,9.718995
2023-03-08T09:05:30.316Z,9.719034
2023-03-08T09:06:30.324Z,9.718920
2023-03-08T09:07:30.288Z,9.719098
2023-03-08T09:08:30.269Z,9.719054
2023-03-08T09:09:30.278Z,9.719210
2023-03-08T09:10:30.243Z,9.719509
2023-03-08T09:11:30.249Z,9.719049
2023-03-08T09:12:30.236Z,9.718940
2023-03-08T09:13:30.237Z,9.718873
2023-03-08T09:14:30.206Z,9.719068
2023-03-08T09:15:30.193Z,9.719221
2023-03-08T09:16:30.271Z,9.719145
2023-03-08T09:17:30.196Z,9.719036
2023-03-08T09:18:31.183Z,9.718759
2023-03-08T09:19:30.188Z,9.719234
2023-03-08T09:20:30.147Z,9.719134
2023-03-08T09:21:30.173Z,9.718631
2023-03-08T09:22:30.137Z,9.718751
2023-03-08T09:23:30.120Z,9.718638
2023-03-08T09:24:30.108Z,9.718956
2023-03-08T09:25:30.121Z,9.718913
2023-03-08T09:26:30.096Z,9.718922
2023-03-08T09:27:30.082Z,9.718965
2023-03-08T09:28:30.112Z,9.718823
2023-03-08T09:29:30.073Z,9.718970
2023-03-08T09:30:30.052Z,9.718927
2023-03-08T09:31:30.051Z,9.718783
2023-03-08T09:32:30.083Z,9.718870
2023-03-08T09:33:30.102Z,9.719077
2023-03-08T09:34:30.020Z,9.718858
2023-03-08T09:35:30.151Z,9.718892
2023-03-08T09:36:29.986Z,9.719059
2023-03-08T09:37:30.030Z,9.718877
2023-03-08T09:38:30.000Z,9.718536
2023-03-08T09:39:29.965Z,9.718536
2023-03-08T09:40:29.965Z,9.718662
2023-03-08T09:41:29.955Z,9.718662
2023-03-08T09:42:29.930Z,9.718662
2023-03-08T09:43:29.948Z,9.718662
2023-03-08T09:44:29.945Z,9.718662
2023-03-08T09:45:29.926Z,9.718662
2023-03-08T09:46:29.924Z,9.718662
2023-03-08T09:47:29.896Z,9.718662
2023-03-08T09:48:29.910Z,9.718662
2023-03-08T09:49:29.902Z,9.718662
2023-03-08T09:50:29.864Z,9.718662
2023-03-08T09:51:29.855Z,9.718662
2023-03-08T09:52:29.845Z,9.718662
2023-03-08T09:53:29.864Z,9.718662
2023-03-08T09:54:29.842Z,9.718662
2023-03-08T09:55:29.879Z,9.718662
2023-03-08T09:56:29.788Z,9.719287
2023-03-08T09:57:29.833Z,9.719295
2023-03-08T09:58:29.784Z,9.719368
2023-03-08T09:59:29.787Z,9.719299
2023-03-08T10:00:30.788Z,9.719295
2023-03-08T10:01:29.753Z,9.719237
2023-03-08T10:02:29.746Z,9.719305
2023-03-08T10:03:29.767Z,9.719234
2023-03-08T10:04:29.769Z,9.719214
2023-03-08T10:05:29.706Z,9.719215
2023-03-08T10:06:29.696Z,9.719253
2023-03-08T10:07:29.707Z,9.719291
2023-03-08T10:08:29.681Z,9.719289
2023-03-08T10:09:29.686Z,9.719311
2023-03-08T10:10:29.651Z,9.719274
2023-03-08T10:11:29.647Z,9.719275
2023-03-08T10:12:29.638Z,9.719221
2023-03-08T10:13:29.645Z,9.719236
2023-03-08T10:14:29.640Z,9.719217
2023-03-08T10:15:29.608Z,9.719265
2023-03-08T10:16:29.660Z,9.719283
2023-03-08T10:17:29.597Z,9.719269
2023-03-08T10:18:29.579Z,9.719283
2023-03-08T10:19:29.604Z,9.719390
2023-03-08T10:20:29.581Z,9.719322
2023-03-08T10:21:29.559Z,9.719264
2023-03-08T10:22:29.536Z,9.719210
2023-03-08T10:23:29.532Z,9.719191
2023-03-08T10:24:29.534Z,9.719225
2023-03-08T10:25:29.509Z,9.719108
2023-03-08T10:26:29.513Z,9.718999
2023-03-08T10:27:29.576Z,9.718838
2023-03-08T10:28:29.492Z,9.718905
2023-03-08T10:29:29.473Z,9.718999
2023-03-08T10:30:29.511Z,9.719082
2023-03-08T10:31:29.499Z,9.719015
2023-03-08T10:32:29.486Z,9.719182
2023-03-08T10:33:29.433Z,9.719203
2023-03-08T10:34:29.430Z,9.719346
2023-03-08T10:35:29.425Z,9.719538
2023-03-08T10:36:29.432Z,9.719414
2023-03-08T10:37:29.402Z,9.719489
2023-03-08T10:38:29.413Z,9.719492
2023-03-08T10:39:29.441Z,9.719266
2023-03-08T10:40:29.364Z,9.719013
2023-03-08T10:41:29.356Z,9.719091
2023-03-08T10:42:29.352Z,9.719151
2023-03-08T10:43:29.346Z,9.719152
2023-03-08T10:44:29.347Z,9.719193
2023-03-08T10:45:29.345Z,9.719267
2023-03-08T10:46:29.342Z,9.719368
2023-03-08T10:47:29.332Z,9.718897
2023-03-08T10:48:29.311Z,9.718810
2023-03-08T10:49:29.291Z,9.719125
2023-03-08T10:50:29.275Z,9.719000
2023-03-08T10:51:29.261Z,9.718919
2023-03-08T10:52:29.274Z,9.718957
2023-03-08T10:53:29.263Z,9.719229
2023-03-08T10:54:29.286Z,9.719121
2023-03-08T10:55:29.277Z,9.719231
2023-03-08T10:56:29.235Z,9.719185
2023-03-08T10:57:29.243Z,9.718947
2023-03-08T10:58:29.204Z,9.719221
2023-03-08T10:59:29.176Z,9.718979
2023-03-08T11:00:29.179Z,9.719003
2023-03-08T11:01:29.182Z,9.719366
2023-03-08T11:02:29.169Z,9.719486
2023-03-08T11:03:29.154Z,9.719028
2023-03-08T11:04:29.166Z,9.718863
2023-03-08T11:05:29.133Z,9.719135
2023-03-08T11:06:29.109Z,9.719172
2023-03-08T11:07:29.124Z,9.719316
2023-03-08T11:08:29.109Z,9.719257
2023-03-08T11:09:29.082Z,9.719400
2023-03-08T11:10:29.094Z,9.718921
2023-03-08T11:11:29.090Z,9.719005
2023-03-08T11:12:29.075Z,9.719272
2023-03-08T11:13:29.036Z,9.719557
2023-03-08T11:14:29.101Z,9.719372
2023-03-08T11:15:29.012Z,9.719232
2023-03-08T11:16:29.053Z,9.719307
2023-03-08T11:17:28.994Z,9.719425
2023-03-08T11:18:28.989Z,9.719397
2023-03-08T11:19:28.997Z,9.719246
2023-03-08T11:20:28.968Z,9.719131
2023-03-08T11:21:28.950Z,9.719370
2023-03-08T11:22:28.986Z,9.719481
2023-03-08T11:23:28.938Z,9.719561
2023-03-08T11:24:28.940Z,9.719426
2023-03-08T11:25:28.963Z,9.719207
2023-03-08T11:26:28.935Z,9.719306
2023-03-08T11:27:28.902Z,9.719438
2023-03-08T11:28:28.936Z,9.719078
2023-03-08T11:29:28.889Z,9.719292
2023-03-08T11:30:28.883Z,9.719139
2023-03-08T11:31:28.882Z,9.719300
2023-03-08T11:32:28.990Z,9.719456
2023-03-08T11:33:29.003Z,9.719490
2023-03-08T11:34:28.829Z,9.719314
2023-03-08T11:35:28.840Z,9.719066
2023-03-08T11:36:28.819Z,9.719246
2023-03-08T11:37:28.818Z,9.719212
2023-03-08T11:38:28.822Z,9.719275
2023-03-08T11:39:28.821Z,9.719244
2023-03-08T11:40:28.768Z,9.719346
2023-03-08T11:41:28.759Z,9.719261
2023-03-08T11:42:28.761Z,9.719245
2023-03-08T11:43:28.758Z,9.719035
2023-03-08T11:44:28.728Z,9.719160